Time;durP1;ratioP1;P1;durP2;ratioP2;P2;SDS_P1;SDS_P2;PMS_P1;PMS_P2;Temp;Humidity;BMP_temperature;BMP_pressure;BME280_temperature;BME280_humidity;BME280_pressure;Samples;Min_cycle;Max_cycle;Signal;HPM_P1;HPM_P2
2022/09/03 00:00:18;;;;;;;2.80;1.40;;;17.30;76.00;;;;;;5027927;28;20128;-73
2022/09/03 00:02:51;;;;;;;5.30;1.48;;;17.30;76.00;;;;;;5031688;28;20106;-74
2022/09/03 00:05:50;;;;;;;6.15;1.50;;;17.30;76.20;;;;;;5010665;28;20049;-73
2022/09/03 00:08:37;;;;;;;5.90;1.23;;;17.20;76.30;;;;;;5027714;28;20053;-74
2022/09/03 00:11:17;;;;;;;3.97;1.45;;;17.20;76.40;;;;;;5033826;28;20409;-73
2022/09/03 00:14:03;;;;;;;10.68;1.75;;;17.10;76.60;;;;;;5029019;28;20092;-73
2022/09/03 00:16:43;;;;;;;9.45;1.48;;;17.10;76.40;;;;;;5009897;28;20041;-74
2022/09/03 00:19:10;;;;;;;4.32;1.50;;;17.10;76.30;;;;;;5028337;28;20053;-77
2022/09/03 00:21:44;;;;;;;7.53;1.87;;;17.10;76.30;;;;;;5011587;28;20148;-73
2022/09/03 00:24:15;;;;;;;5.75;1.52;;;17.10;76.40;;;;;;5028529;28;20299;-74
2022/09/03 00:26:50;;;;;;;3.80;1.70;;;17.10;76.40;;;;;;4996269;28;20052;-73
2022/09/03 00:29:24;;;;;;;5.32;1.48;;;17.00;76.40;;;;;;5019533;28;20049;-74
2022/09/03 00:31:55;;;;;;;7.53;1.70;;;17.00;76.50;;;;;;5015032;28;20068;-75
2022/09/03 00:34:44;;;;;;;3.28;1.45;;;17.00;76.60;;;;;;5015444;28;20053;-74
2022/09/03 00:37:10;;;;;;;8.37;1.53;;;17.00;76.60;;;;;;5027346;28;20187;-74
2022/09/03 00:39:37;;;;;;;8.57;1.65;;;16.90;76.70;;;;;;5029891;28;20143;-75
2022/09/03 00:42:23;;;;;;;6.20;1.50;;;16.90;76.90;;;;;;5031747;28;20427;-74
2022/09/03 00:45:11;;;;;;;6.97;1.30;;;16.90;77.30;;;;;;5024499;28;20045;-75
2022/09/03 00:48:02;;;;;;;5.97;1.40;;;16.90;77.80;;;;;;5028504;28;20049;-74
2022/09/03 00:50:33;;;;;;;4.47;1.05;;;16.80;77.70;;;;;;5015582;28;20802;-76
2022/09/03 00:53:14;;;;;;;3.17;1.30;;;16.80;77.50;;;;;;5011732;28;20045;-75
2022/09/03 00:55:58;;;;;;;2.15;1.00;;;16.80;77.50;;;;;;5023022;28;20041;-74
2022/09/03 00:58:33;;;;;;;4.78;2.70;;;16.80;77.80;;;;;;5029383;28;20061;-76
2022/09/03 01:01:06;;;;;;;2.42;1.30;;;16.70;77.40;;;;;;5028949;28;20397;-74
2022/09/03 01:04:11;;;;;;;2.60;1.30;;;16.70;77.40;;;;;;5012367;28;20485;-74
2022/09/03 01:07:00;;;;;;;4.28;1.35;;;16.70;78.10;;;;;;4969017;28;20055;-73
2022/09/03 01:09:34;;;;;;;2.45;1.23;;;16.70;77.60;;;;;;4995880;28;20049;-74
2022/09/03 01:12:12;;;;;;;3.35;1.42;;;16.70;77.70;;;;;;5027159;28;20041;-73
2022/09/03 01:14:53;;;;;;;4.80;1.30;;;16.70;77.70;;;;;;5014370;28;20056;-76
2022/09/03 01:17:54;;;;;;;6.40;1.42;;;16.60;77.90;;;;;;5033204;28;20053;-73
2022/09/03 01:20:57;;;;;;;4.50;1.60;;;16.60;78.20;;;;;;5010456;28;20056;-73
2022/09/03 01:23:40;;;;;;;6.43;1.70;;;16.60;78.30;;;;;;5008389;28;20049;-73
2022/09/03 01:26:19;;;;;;;7.35;1.33;;;16.60;78.30;;;;;;5013715;28;20045;-74
2022/09/03 01:29:21;;;;;;;3.30;1.30;;;16.50;78.40;;;;;;5029153;28;20569;-73
2022/09/03 01:32:01;;;;;;;4.95;1.30;;;16.50;79.00;;;;;;5009403;28;20566;-72
2022/09/03 01:34:52;;;;;;;4.20;1.48;;;16.40;78.90;;;;;;5012417;28;20041;-75
2022/09/03 01:37:18;;;;;;;2.28;1.30;;;16.40;79.30;;;;;;5027972;28;20095;-75
2022/09/03 01:40:41;;;;;;;3.17;1.50;;;16.30;79.30;;;;;;5011563;28;20761;-75
2022/09/03 01:43:22;;;;;;;8.95;1.63;;;16.30;80.10;;;;;;4916078;29;20043;-76
2022/09/03 01:45:59;;;;;;;2.72;1.10;;;16.20;80.40;;;;;;4914014;29;20058;-74
2022/09/03 01:48:48;;;;;;;3.95;1.30;;;16.20;80.30;;;;;;4989514;28;20532;-74
2022/09/03 01:51:27;;;;;;;3.20;1.60;;;16.10;81.50;;;;;;5012250;28;20493;-74
2022/09/03 01:54:11;;;;;;;3.85;2.20;;;16.00;81.20;;;;;;5011085;28;20703;-73
2022/09/03 01:56:58;;;;;;;5.30;1.33;;;16.00;81.70;;;;;;5008774;28;20084;-75
2022/09/03 01:59:32;;;;;;;7.90;1.35;;;15.90;81.90;;;;;;5010982;28;20780;-72
2022/09/03 02:02:20;;;;;;;5.05;1.40;;;15.80;82.40;;;;;;5008785;28;20496;-73
2022/09/03 02:05:08;;;;;;;2.95;1.40;;;15.80;83.50;;;;;;5030839;28;20164;-73
2022/09/03 02:07:45;;;;;;;4.68;1.40;;;15.70;83.90;;;;;;5002947;28;20064;-76
2022/09/03 02:10:18;;;;;;;4.43;1.45;;;15.60;84.40;;;;;;5017461;28;20057;-72
2022/09/03 02:13:01;;;;;;;5.40;1.30;;;15.60;84.50;;;;;;5023063;28;20061;-75
2022/09/03 02:15:27;;;;;;;3.55;1.52;;;15.50;85.00;;;;;;5025388;28;20091;-74
2022/09/03 02:17:58;;;;;;;4.80;1.52;;;15.40;84.90;;;;;;5027972;28;20084;-74
2022/09/03 02:20:27;;;;;;;5.43;1.58;;;15.40;85.00;;;;;;5011169;28;20048;-74
2022/09/03 02:22:55;;;;;;;3.42;1.60;;;15.30;85.10;;;;;;5028541;28;20084;-75
2022/09/03 02:25:29;;;;;;;3.42;1.50;;;15.30;85.00;;;;;;5011265;28;20460;-76
2022/09/03 02:27:55;;;;;;;2.67;1.40;;;15.20;85.20;;;;;;5028338;28;20042;-74
2022/09/03 02:30:21;;;;;;;4.60;1.40;;;15.20;85.60;;;;;;5004601;28;20528;-74
2022/09/03 02:32:47;;;;;;;5.60;1.50;;;15.20;86.00;;;;;;5028553;28;20079;-77
2022/09/03 02:35:12;;;;;;;4.75;1.52;;;15.10;86.10;;;;;;5002222;28;20065;-73
2022/09/03 02:37:38;;;;;;;6.50;1.50;;;15.10;86.50;;;;;;5024838;28;20503;-74
2022/09/03 02:40:07;;;;;;;3.33;1.20;;;15.10;86.40;;;;;;5023238;28;20482;-75
2022/09/03 02:42:33;;;;;;;2.80;1.55;;;15.00;86.40;;;;;;5027953;28;20108;-74
2022/09/03 02:45:26;;;;;;;5.68;1.80;;;15.00;87.20;;;;;;5010999;28;20187;-73
2022/09/03 02:47:55;;;;;;;6.97;1.75;;;15.00;87.20;;;;;;5006297;28;20046;-74
2022/09/03 02:50:22;;;;;;;3.40;1.63;;;14.90;87.40;;;;;;5028657;28;20048;-74
2022/09/03 02:52:48;;;;;;;2.35;1.40;;;14.80;88.00;;;;;;5029177;28;20412;-75
2022/09/03 02:55:14;;;;;;;4.72;1.60;;;14.80;87.80;;;;;;5009345;28;20192;-73
2022/09/03 02:57:40;;;;;;;6.43;1.60;;;14.70;87.80;;;;;;5007982;28;20081;-74
2022/09/03 03:00:07;;;;;;;5.72;1.50;;;14.70;88.00;;;;;;5024473;28;20075;-73
2022/09/03 03:02:33;;;;;;;2.67;1.45;;;14.70;88.20;;;;;;4995234;28;20084;-74
2022/09/03 03:04:59;;;;;;;5.43;1.60;;;14.70;88.50;;;;;;5008306;28;20115;-74
2022/09/03 03:07:25;;;;;;;5.95;1.52;;;14.60;88.90;;;;;;5012444;28;20371;-74
2022/09/03 03:09:51;;;;;;;2.60;1.50;;;14.60;89.00;;;;;;5026960;28;20080;-75
2022/09/03 03:12:18;;;;;;;4.88;1.67;;;14.60;89.30;;;;;;5024345;28;20049;-73
2022/09/03 03:14:44;;;;;;;4.82;1.50;;;14.60;89.40;;;;;;5026749;28;20052;-74
2022/09/03 03:17:10;;;;;;;2.60;1.83;;;14.50;89.70;;;;;;5026893;28;20120;-74
2022/09/03 03:19:36;;;;;;;8.30;1.70;;;14.50;89.90;;;;;;5004659;28;20117;-75
2022/09/03 03:22:02;;;;;;;9.48;1.98;;;14.50;90.10;;;;;;5028817;28;20052;-73
2022/09/03 03:24:27;;;;;;;3.45;1.88;;;14.40;90.30;;;;;;5027760;28;20113;-74
2022/09/03 03:26:57;;;;;;;5.10;1.67;;;14.50;90.40;;;;;;5020956;28;20081;-75
2022/09/03 03:29:24;;;;;;;2.63;1.60;;;14.40;90.40;;;;;;5007644;28;20041;-75
2022/09/03 03:31:50;;;;;;;2.10;1.50;;;14.40;90.60;;;;;;5027843;28;20642;-76
2022/09/03 03:34:16;;;;;;;6.68;1.45;;;14.40;90.60;;;;;;5010125;28;20492;-73
2022/09/03 03:36:42;;;;;;;5.93;1.75;;;14.40;90.70;;;;;;5027071;28;20037;-74
2022/09/03 03:39:08;;;;;;;3.05;1.60;;;14.40;90.90;;;;;;5029293;28;20041;-74
2022/09/03 03:41:35;;;;;;;2.72;1.52;;;14.40;90.70;;;;;;5025101;28;20548;-74
2022/09/03 03:44:05;;;;;;;2.50;1.80;;;14.40;90.90;;;;;;5028044;28;20030;-74
2022/09/03 03:46:40;;;;;;;2.85;1.48;;;14.40;91.00;;;;;;5025629;28;20065;-75
2022/09/03 03:49:09;;;;;;;3.33;1.50;;;14.40;91.20;;;;;;5012070;28;20104;-74
2022/09/03 03:51:36;;;;;;;2.17;1.40;;;14.50;91.10;;;;;;5008978;28;20085;-75
2022/09/03 03:54:01;;;;;;;3.75;1.50;;;14.50;91.20;;;;;;5028409;28;20444;-74
2022/09/03 03:56:30;;;;;;;4.38;1.40;;;14.50;91.10;;;;;;5026237;28;20053;-77
2022/09/03 03:59:00;;;;;;;2.92;1.70;;;14.50;91.10;;;;;;5009007;28;20061;-73
2022/09/03 04:01:27;;;;;;;4.00;1.92;;;14.50;91.20;;;;;;5004256;28;20045;-73
2022/09/03 04:03:57;;;;;;;4.65;1.38;;;14.60;91.20;;;;;;5010602;28;20045;-75
2022/09/03 04:06:23;;;;;;;3.40;1.77;;;14.60;91.20;;;;;;5023166;28;20045;-74
2022/09/03 04:08:49;;;;;;;2.65;1.50;;;14.60;91.20;;;;;;5028267;28;20512;-77
2022/09/03 04:11:18;;;;;;;2.53;1.80;;;14.70;91.20;;;;;;5026581;28;20049;-72
2022/09/03 04:13:45;;;;;;;5.05;1.67;;;14.60;91.20;;;;;;5027284;28;20034;-73
2022/09/03 04:16:20;;;;;;;3.40;1.60;;;14.60;91.40;;;;;;5006694;28;20049;-74
2022/09/03 04:18:48;;;;;;;2.80;1.83;;;14.70;91.30;;;;;;4995516;28;20042;-74
2022/09/03 04:21:19;;;;;;;2.90;1.70;;;14.70;91.30;;;;;;5011269;28;20088;-73
2022/09/03 04:23:46;;;;;;;3.17;1.50;;;14.70;91.30;;;;;;5022800;28;20041;-75
2022/09/03 04:26:15;;;;;;;5.80;1.83;;;14.70;91.20;;;;;;5026071;28;20045;-72
2022/09/03 04:28:44;;;;;;;3.28;1.85;;;14.70;91.20;;;;;;5010046;28;20045;-74
2022/09/03 04:31:12;;;;;;;5.10;1.70;;;14.70;91.30;;;;;;5020832;28;20124;-74
2022/09/03 04:33:38;;;;;;;3.65;1.60;;;15.40;91.60;;;;;;4989873;28;20037;-75
2022/09/03 04:36:10;;;;;;;3.92;1.70;;;14.70;91.50;;;;;;5027808;28;20049;-73
2022/09/03 04:38:38;;;;;;;2.72;1.80;;;14.70;91.50;;;;;;5013521;28;20073;-74
2022/09/03 04:41:05;;;;;;;3.42;1.75;;;14.80;91.70;;;;;;5026634;28;20041;-73
2022/09/03 04:43:31;;;;;;;5.35;1.85;;;14.70;91.60;;;;;;5027179;28;20459;-74
2022/09/03 04:45:59;;;;;;;3.63;1.65;;;14.70;91.80;;;;;;5026110;28;20049;-73
2022/09/03 04:48:25;;;;;;;4.15;1.85;;;14.60;91.70;;;;;;5011985;28;20401;-76
2022/09/03 04:50:54;;;;;;;8.20;1.75;;;14.70;91.90;;;;;;5015054;28;20053;-74
2022/09/03 04:53:23;;;;;;;8.18;2.25;;;14.60;91.90;;;;;;5006753;28;20049;-74
2022/09/03 04:55:49;;;;;;;5.40;1.63;;;14.60;91.90;;;;;;5008039;28;20447;-72
2022/09/03 04:58:17;;;;;;;6.10;1.70;;;14.60;92.00;;;;;;4985328;28;20149;-73
2022/09/03 05:00:43;;;;;;;3.15;1.70;;;14.60;92.10;;;;;;5009150;28;20045;-73
2022/09/03 05:03:09;;;;;;;7.13;1.90;;;14.60;92.20;;;;;;5007016;28;20046;-73
2022/09/03 05:05:35;;;;;;;6.47;2.15;;;14.60;92.30;;;;;;5004716;28;20041;-74
2022/09/03 05:08:01;;;;;;;6.18;1.63;;;14.50;92.30;;;;;;5008648;28;20056;-73
2022/09/03 05:10:27;;;;;;;3.95;1.80;;;14.50;92.50;;;;;;5009515;28;20057;-73
2022/09/03 05:13:04;;;;;;;5.75;1.92;;;14.50;92.40;;;;;;5006468;28;20046;-77
2022/09/03 05:15:31;;;;;;;7.57;1.77;;;14.50;92.50;;;;;;5010827;28;20414;-71
2022/09/03 05:18:02;;;;;;;3.00;1.70;;;14.50;92.50;;;;;;5007693;28;20041;-73
2022/09/03 05:20:29;;;;;;;4.22;1.70;;;14.50;92.60;;;;;;5006532;28;20034;-72
2022/09/03 05:22:56;;;;;;;5.68;1.98;;;14.50;92.70;;;;;;5011694;28;20044;-73
2022/09/03 05:25:25;;;;;;;5.30;2.10;;;14.50;92.70;;;;;;5008628;28;20096;-71
2022/09/03 05:27:50;;;;;;;2.95;1.70;;;14.50;92.80;;;;;;5005191;28;20049;-73
2022/09/03 05:30:16;;;;;;;3.08;1.90;;;14.50;92.80;;;;;;5007845;28;20060;-73
2022/09/03 05:32:42;;;;;;;5.10;1.73;;;14.50;92.90;;;;;;4992124;28;20038;-74
2022/09/03 05:35:09;;;;;;;7.03;1.77;;;14.50;92.90;;;;;;5006509;28;20045;-73
2022/09/03 05:37:35;;;;;;;5.88;2.17;;;14.50;92.90;;;;;;5008974;28;20045;-73
2022/09/03 05:40:02;;;;;;;4.40;1.70;;;14.50;93.00;;;;;;5012537;28;20397;-74
2022/09/03 05:42:31;;;;;;;7.47;2.13;;;14.50;93.00;;;;;;5008682;28;20046;-75
2022/09/03 05:44:57;;;;;;;4.50;2.10;;;14.50;93.00;;;;;;5006786;28;20133;-72
2022/09/03 05:47:23;;;;;;;5.47;1.75;;;14.50;93.00;;;;;;5006626;28;20049;-76
2022/09/03 05:49:48;;;;;;;2.55;1.60;;;14.60;93.10;;;;;;4998813;28;20430;-75
2022/09/03 05:52:15;;;;;;;5.35;2.00;;;14.50;93.10;;;;;;5006530;28;20049;-74
2022/09/03 05:54:41;;;;;;;5.75;2.00;;;14.50;93.10;;;;;;5013847;28;20050;-74
2022/09/03 05:57:07;;;;;;;8.32;1.95;;;14.50;93.20;;;;;;5018949;28;20041;-73
2022/09/03 05:59:32;;;;;;;4.82;1.75;;;14.50;93.30;;;;;;5029474;28;20136;-73
2022/09/03 06:01:58;;;;;;;4.05;1.75;;;14.50;93.40;;;;;;5009180;28;20435;-74
2022/09/03 06:04:24;;;;;;;3.05;1.70;;;14.50;93.40;;;;;;5006058;28;20045;-73
2022/09/03 06:06:49;;;;;;;2.40;1.63;;;14.50;93.40;;;;;;5030479;28;20041;-71
2022/09/03 06:09:21;;;;;;;2.88;1.60;;;14.60;93.40;;;;;;5031420;28;20041;-74
2022/09/03 06:11:48;;;;;;;4.47;1.95;;;14.60;93.40;;;;;;5009281;28;20497;-75
2022/09/03 06:14:15;;;;;;;6.55;1.80;;;14.70;93.40;;;;;;5024378;28;20064;-71
2022/09/03 06:16:48;;;;;;;5.40;1.92;;;14.80;93.30;;;;;;5014977;28;20485;-74
2022/09/03 06:19:14;;;;;;;3.45;1.70;;;14.80;93.30;;;;;;5030154;28;20063;-74
2022/09/03 06:21:42;;;;;;;4.93;2.03;;;14.80;93.20;;;;;;5010236;28;20037;-73
2022/09/03 06:24:13;;;;;;;8.40;1.80;;;14.90;93.30;;;;;;5027127;28;20120;-73
2022/09/03 06:26:39;;;;;;;3.58;2.00;;;14.90;93.40;;;;;;5036778;28;20041;-73
2022/09/03 06:29:05;;;;;;;3.40;1.90;;;14.90;93.30;;;;;;5018394;28;20045;-73
2022/09/03 06:31:31;;;;;;;5.50;1.70;;;15.00;93.20;;;;;;5037924;28;20038;-72
2022/09/03 06:33:57;;;;;;;4.00;2.00;;;15.10;93.20;;;;;;5034150;28;20041;-75
2022/09/03 06:36:23;;;;;;;2.28;1.50;;;15.30;93.10;;;;;;5040600;28;20094;-73
2022/09/03 06:38:56;;;;;;;3.35;2.25;;;15.70;92.90;;;;;;5038388;28;20045;-72
2022/09/03 06:41:31;;;;;;;5.30;1.80;;;16.10;92.10;;;;;;5004874;28;20075;-73
2022/09/03 06:44:01;;;;;;;6.40;1.80;;;16.60;91.40;;;;;;5014460;28;20046;-76
2022/09/03 06:46:37;;;;;;;2.70;1.70;;;16.90;91.00;;;;;;5007467;28;20072;-73
2022/09/03 06:49:03;;;;;;;2.33;1.73;;;17.10;90.30;;;;;;5010247;28;20056;-74
2022/09/03 06:51:31;;;;;;;2.55;1.75;;;17.40;90.10;;;;;;5032133;28;20041;-76
2022/09/03 06:54:09;;;;;;;6.32;1.80;;;17.60;89.40;;;;;;4996861;28;20053;-72
2022/09/03 06:56:39;;;;;;;2.85;1.75;;;17.60;87.70;;;;;;4994724;28;20067;-72
2022/09/03 06:59:13;;;;;;;6.10;2.25;;;17.50;88.50;;;;;;5023751;28;20049;-74
2022/09/03 07:01:40;;;;;;;2.80;1.80;;;17.40;88.80;;;;;;5010010;28;20038;-74
2022/09/03 07:04:08;;;;;;;6.13;2.08;;;17.40;89.00;;;;;;5029726;28;20068;-72
2022/09/03 07:06:40;;;;;;;1.98;1.60;;;17.60;88.00;;;;;;5021745;28;20053;-72
2022/09/03 07:09:08;;;;;;;4.60;1.77;;;17.60;87.50;;;;;;5013221;28;20041;-72
2022/09/03 07:11:39;;;;;;;5.17;1.60;;;17.60;87.80;;;;;;5013252;28;20110;-72
2022/09/03 07:14:04;;;;;;;4.53;1.80;;;17.50;88.00;;;;;;5007288;28;20732;-70
2022/09/03 07:16:34;;;;;;;9.90;1.83;;;17.50;87.90;;;;;;5016662;28;20140;-70
2022/09/03 07:19:00;;;;;;;3.35;1.63;;;17.40;88.10;;;;;;5003492;28;20492;-72
2022/09/03 07:21:28;;;;;;;2.72;1.60;;;17.40;88.10;;;;;;5020486;28;20049;-73
2022/09/03 07:23:58;;;;;;;3.58;1.77;;;17.50;88.20;;;;;;5026218;28;20053;-71
2022/09/03 07:26:27;;;;;;;3.78;1.60;;;17.60;87.90;;;;;;5018172;28;20068;-71
2022/09/03 07:28:53;;;;;;;4.35;1.90;;;17.70;88.00;;;;;;5021062;28;20075;-70
2022/09/03 07:31:28;;;;;;;6.82;1.73;;;17.70;87.80;;;;;;5019293;28;21403;-72
2022/09/03 07:34:05;;;;;;;6.90;1.95;;;17.80;87.20;;;;;;5003643;28;20113;-72
2022/09/03 07:36:40;;;;;;;2.65;1.65;;;17.80;86.90;;;;;;5022423;28;20037;-72
2022/09/03 07:39:06;;;;;;;4.15;1.70;;;17.90;86.60;;;;;;4988549;28;20128;-71
2022/09/03 07:41:32;;;;;;;7.68;1.83;;;18.00;86.70;;;;;;5018701;28;20332;-70
2022/09/03 07:44:04;;;;;;;3.83;1.52;;;18.10;86.60;;;;;;4991250;28;20120;-72
2022/09/03 07:46:32;;;;;;;7.65;1.58;;;18.30;86.60;;;;;;5020966;28;20068;-73
2022/09/03 07:49:02;;;;;;;6.90;1.60;;;18.40;85.90;;;;;;5015345;28;20052;-71
2022/09/03 07:51:31;;;;;;;2.80;1.60;;;18.60;85.80;;;;;;4980403;28;20476;-72
2022/09/03 07:54:00;;;;;;;4.32;1.65;;;18.70;85.30;;;;;;5019917;28;20120;-73
2022/09/03 07:56:29;;;;;;;5.38;1.65;;;18.70;84.70;;;;;;5000957;28;20069;-73
2022/09/03 07:58:56;;;;;;;4.50;1.63;;;18.80;84.30;;;;;;5015892;28;20171;-73
2022/09/03 08:01:23;;;;;;;2.83;1.70;;;18.90;84.30;;;;;;5009362;28;20045;-72
2022/09/03 08:03:52;;;;;;;3.75;1.40;;;19.00;84.00;;;;;;5013292;28;20413;-71
2022/09/03 08:06:25;;;;;;;6.18;1.70;;;19.10;84.10;;;;;;5010804;28;20052;-71
2022/09/03 08:08:59;;;;;;;2.75;1.70;;;19.30;83.20;;;;;;4993971;28;20095;-72
2022/09/03 08:11:27;;;;;;;4.03;1.70;;;19.40;82.60;;;;;;4995202;28;20045;-72
2022/09/03 08:14:01;;;;;;;4.07;1.70;;;19.40;82.20;;;;;;5000291;28;20049;-71
2022/09/03 08:16:36;;;;;;;6.10;1.55;;;19.40;82.00;;;;;;5016360;28;20057;-72
2022/09/03 08:19:02;;;;;;;2.05;1.40;;;19.50;81.60;;;;;;5014894;28;20087;-71
2022/09/03 08:21:30;;;;;;;4.30;1.52;;;19.60;81.60;;;;;;4982994;28;20061;-72
2022/09/03 08:24:03;;;;;;;5.63;1.58;;;19.80;81.80;;;;;;5016679;28;20146;-72
2022/09/03 08:26:31;;;;;;;4.97;1.70;;;19.90;81.60;;;;;;5012997;28;20505;-71
2022/09/03 08:28:57;;;;;;;3.55;1.73;;;20.10;81.10;;;;;;5002409;28;20049;-72
2022/09/03 08:31:25;;;;;;;4.22;1.60;;;20.20;80.00;;;;;;4979578;28;20192;-72
2022/09/03 08:33:53;;;;;;;8.60;1.70;;;20.30;80.10;;;;;;5015633;28;20068;-71
2022/09/03 08:36:21;;;;;;;;;;;20.10;79.40;;;;;;5020876;28;20135;-73
2022/09/03 08:38:53;;;;;;;7.53;1.75;;;20.50;78.80;;;;;;5015438;28;19929;-72
2022/09/03 08:41:30;;;;;;;7.80;1.70;;;20.60;79.20;;;;;;5015578;28;20096;-70
2022/09/03 08:44:22;;;;;;;8.55;1.60;;;20.80;78.80;;;;;;5014497;28;20509;-73
2022/09/03 08:47:04;;;;;;;7.47;1.90;;;20.90;77.70;;;;;;5014367;28;20156;-71
2022/09/03 08:49:54;;;;;;;4.82;1.60;;;20.90;76.00;;;;;;4997493;28;21749;-72
2022/09/03 08:52:32;;;;;;;5.63;1.70;;;21.00;76.60;;;;;;5017637;28;20038;-73
2022/09/03 08:55:23;;;;;;;5.60;1.70;;;21.10;76.60;;;;;;5018595;28;20046;-73
2022/09/03 08:57:58;;;;;;;5.03;1.42;;;21.20;75.90;;;;;;4973624;28;20085;-72
2022/09/03 09:00:28;;;;;;;4.32;1.80;;;21.30;75.50;;;;;;5012745;28;20051;-71
2022/09/03 09:03:26;;;;;;;1.73;1.30;;;21.40;76.00;;;;;;4967065;28;20155;-73
2022/09/03 09:05:54;;;;;;;4.03;1.55;;;21.50;75.20;;;;;;4968642;28;20637;-73
2022/09/03 09:08:20;;;;;;;4.50;1.70;;;21.50;75.70;;;;;;5012574;28;20062;-73
2022/09/03 09:10:51;;;;;;;4.82;1.40;;;21.60;75.50;;;;;;4996802;28;20409;-72
2022/09/03 09:13:38;;;;;;;4.55;1.50;;;21.80;75.60;;;;;;4999134;28;20060;-73
2022/09/03 09:16:32;;;;;;;3.70;1.50;;;21.90;75.40;;;;;;5013596;28;21048;-72
2022/09/03 09:19:16;;;;;;;2.63;1.48;;;22.10;73.40;;;;;;5016104;28;20073;-70
2022/09/03 09:21:46;;;;;;;4.90;1.42;;;22.20;74.40;;;;;;4998537;28;20033;-73
2022/09/03 09:24:25;;;;;;;4.53;1.65;;;22.20;73.30;;;;;;5017141;28;20076;-74
2022/09/03 09:27:04;;;;;;;2.42;1.55;;;22.30;74.20;;;;;;5009847;28;20046;-72
2022/09/03 09:29:33;;;;;;;4.63;1.50;;;22.30;73.70;;;;;;5029626;28;20099;-72
2022/09/03 09:32:00;;;;;;;3.10;1.55;;;22.40;73.30;;;;;;5033699;28;20052;-72
2022/09/03 09:34:26;;;;;;;4.63;1.63;;;22.40;73.10;;;;;;5015935;28;20053;-72
2022/09/03 09:36:54;;;;;;;4.97;1.50;;;22.50;73.70;;;;;;5002892;28;20045;-73
2022/09/03 09:39:21;;;;;;;5.43;1.38;;;22.60;73.20;;;;;;5014629;28;20045;-70
2022/09/03 09:42:08;;;;;;;7.30;1.40;;;22.70;73.30;;;;;;5033195;28;20132;-73
2022/09/03 09:44:35;;;;;;;3.97;1.85;;;22.90;73.20;;;;;;5029544;28;20072;-71
2022/09/03 09:47:25;;;;;;;2.85;1.33;;;23.00;73.00;;;;;;5014125;28;20120;-71
2022/09/03 09:50:01;;;;;;;3.08;1.30;;;23.20;72.00;;;;;;5017600;28;20497;-72
2022/09/03 09:52:30;;;;;;;4.78;1.17;;;23.30;71.60;;;;;;5033009;28;20045;-72
2022/09/03 09:55:08;;;;;;;2.58;1.23;;;23.40;71.80;;;;;;5033410;28;20045;-72
2022/09/03 09:57:34;;;;;;;7.03;1.58;;;23.60;70.90;;;;;;5009987;28;20068;-71
2022/09/03 10:00:18;;;;;;;2.70;1.38;;;23.80;71.00;;;;;;5029070;28;20049;-73
2022/09/03 10:02:53;;;;;;;4.13;1.55;;;23.90;69.60;;;;;;5030385;28;20048;-71
2022/09/03 10:05:39;;;;;;;5.05;1.35;;;24.00;70.10;;;;;;5011525;28;20076;-70
2022/09/03 10:08:20;;;;;;;3.72;1.45;;;24.10;69.70;;;;;;5031953;28;20051;-70
2022/09/03 10:10:49;;;;;;;4.43;1.40;;;24.20;69.30;;;;;;5010142;28;20045;-73
2022/09/03 10:13:29;;;;;;;7.38;1.70;;;24.40;69.40;;;;;;5029769;28;20046;-72
2022/09/03 10:16:02;;;;;;;5.50;1.42;;;24.40;68.30;;;;;;4996883;28;20041;-71
2022/09/03 10:18:42;;;;;;;8.27;1.50;;;24.60;68.40;;;;;;5028928;28;20711;-74
2022/09/03 10:21:33;;;;;;;10.43;1.30;;;24.70;67.00;;;;;;5031065;28;20121;-72
2022/09/03 10:24:12;;;;;;;5.88;1.48;;;24.80;66.70;;;;;;5021330;28;20072;-74
2022/09/03 10:26:38;;;;;;;4.07;1.70;;;25.00;67.10;;;;;;5012121;28;20037;-72
2022/09/03 10:29:07;;;;;;;10.68;1.70;;;25.10;66.70;;;;;;5017175;28;20324;-72
2022/09/03 10:31:44;;;;;;;13.75;1.67;;;25.30;66.00;;;;;;5026770;28;20042;-72
2022/09/03 10:34:35;;;;;;;5.95;1.60;;;25.30;65.10;;;;;;5007996;28;20114;-72
2022/09/03 10:37:22;;;;;;;8.02;1.80;;;25.50;64.80;;;;;;5000299;28;20049;-72
2022/09/03 10:40:31;;;;;;;6.28;1.80;;;25.80;65.00;;;;;;5033030;28;20072;-71
2022/09/03 10:43:06;;;;;;;3.53;1.75;;;26.10;63.80;;;;;;5030579;28;20060;-70
2022/09/03 10:45:46;;;;;;;7.07;1.30;;;26.20;62.70;;;;;;5013722;28;20121;-73
2022/09/03 10:48:39;;;;;;;5.43;1.60;;;26.40;63.00;;;;;;5026148;28;20045;-72
2022/09/03 10:51:12;;;;;;;5.32;1.50;;;26.50;62.00;;;;;;5024794;28;20045;-71
2022/09/03 10:54:11;;;;;;;8.15;1.30;;;26.70;62.60;;;;;;5021329;28;20049;-71
2022/09/03 10:56:49;;;;;;;;;;;26.80;62.50;;;;;;5013773;28;20041;-72
2022/09/03 10:59:42;;;;;;;3.15;1.20;;;26.80;61.30;;;;;;5030864;28;19917;-71
2022/09/03 11:02:47;;;;;;;13.13;1.60;;;26.90;60.40;;;;;;5023395;28;20045;-72
2022/09/03 11:05:15;;;;;;;6.45;1.63;;;27.10;60.40;;;;;;5029146;28;20562;-74
2022/09/03 11:07:50;;;;;;;5.88;1.20;;;27.20;60.60;;;;;;5031409;28;20541;-73
2022/09/03 11:10:26;;;;;;;7.35;1.40;;;27.50;60.30;;;;;;5029280;28;20069;-71
2022/09/03 11:12:58;;;;;;;7.53;1.52;;;27.80;59.70;;;;;;5008188;28;20428;-73
2022/09/03 11:15:30;;;;;;;6.47;1.40;;;28.00;59.50;;;;;;5031029;28;20040;-71
2022/09/03 11:18:04;;;;;;;6.05;1.50;;;28.10;58.70;;;;;;5005171;28;20049;-72
2022/09/03 11:20:31;;;;;;;6.20;1.38;;;28.20;56.80;;;;;;5002689;28;20440;-73
2022/09/03 11:23:01;;;;;;;10.55;1.58;;;28.00;57.30;;;;;;5030727;28;20554;-72
2022/09/03 11:25:36;;;;;;;4.10;1.13;;;28.20;57.00;;;;;;5030693;28;20076;-73
2022/09/03 11:28:11;;;;;;;11.10;1.30;;;28.20;56.10;;;;;;5022752;28;20041;-74
2022/09/03 11:31:04;;;;;;;10.48;1.83;;;28.30;56.20;;;;;;5030286;28;20041;-72
2022/09/03 11:33:32;;;;;;;7.75;1.42;;;28.50;56.40;;;;;;5025910;28;20053;-74
2022/09/03 11:36:00;;;;;;;4.57;1.30;;;28.70;56.20;;;;;;4996478;28;20049;-72
2022/09/03 11:38:30;;;;;;;8.50;1.40;;;28.70;54.50;;;;;;5031864;28;20396;-72
2022/09/03 11:41:14;;;;;;;6.35;1.50;;;28.70;55.20;;;;;;5028683;28;20072;-71
2022/09/03 11:43:41;;;;;;;5.97;1.27;;;29.00;54.80;;;;;;5013708;28;20523;-72
2022/09/03 11:46:13;;;;;;;7.00;1.50;;;29.10;55.20;;;;;;5022585;28;20412;-73
2022/09/03 11:48:42;;;;;;;5.63;1.60;;;29.10;54.20;;;;;;5033524;28;20100;-73
2022/09/03 11:51:29;;;;;;;12.48;1.50;;;29.10;53.30;;;;;;5019868;28;20560;-72
2022/09/03 11:54:03;;;;;;;7.57;1.33;;;29.00;53.20;;;;;;5015596;28;20037;-73
2022/09/03 11:56:31;;;;;;;8.10;1.48;;;29.00;54.10;;;;;;5019468;28;20065;-73
2022/09/03 11:59:06;;;;;;;4.70;1.33;;;29.10;54.20;;;;;;5034575;28;20049;-72
2022/09/03 12:01:35;;;;;;;9.38;1.90;;;29.20;53.10;;;;;;5032088;28;20597;-71
2022/09/03 12:04:06;;;;;;;7.90;1.60;;;29.30;53.50;;;;;;5015790;28;20050;-74
2022/09/03 12:07:02;;;;;;;3.30;1.48;;;29.30;52.50;;;;;;5013046;28;20088;-72
2022/09/03 12:09:28;;;;;;;4.70;1.40;;;29.00;52.00;;;;;;5037325;28;20049;-71
2022/09/03 12:12:08;;;;;;;4.97;1.30;;;28.90;52.60;;;;;;5039732;28;20053;-71
2022/09/03 12:14:46;;;;;;;5.35;1.30;;;28.90;52.60;;;;;;5019000;28;20080;-72
2022/09/03 12:17:42;;;;;;;4.47;1.27;;;29.10;52.10;;;;;;5035924;28;20476;-73
2022/09/03 12:20:13;;;;;;;7.60;1.50;;;29.30;52.10;;;;;;5021721;28;20041;-72
2022/09/03 12:22:39;;;;;;;5.53;1.42;;;29.40;52.10;;;;;;5016618;28;20089;-73
2022/09/03 12:25:14;;;;;;;3.88;1.38;;;29.30;51.70;;;;;;5005039;28;20053;-71
2022/09/03 12:27:44;;;;;;;4.97;1.55;;;29.30;51.30;;;;;;5040788;28;20104;-74
2022/09/03 12:30:21;;;;;;;5.93;1.98;;;29.20;51.70;;;;;;5003429;28;20041;-73
2022/09/03 12:32:47;;;;;;;5.65;1.45;;;29.20;50.90;;;;;;5032748;28;20056;-72
2022/09/03 12:35:24;;;;;;;7.55;1.67;;;29.30;51.40;;;;;;5030052;28;20041;-71
2022/09/03 12:37:51;;;;;;;3.65;1.40;;;29.30;51.50;;;;;;5035535;28;20081;-72
2022/09/03 12:40:21;;;;;;;2.97;1.30;;;29.40;50.90;;;;;;5010905;28;20046;-72
2022/09/03 12:42:48;;;;;;;4.88;1.42;;;29.70;50.90;;;;;;5020408;28;20061;-73
2022/09/03 12:45:23;;;;;;;2.40;1.38;;;29.90;50.70;;;;;;5037391;28;20049;-72
2022/09/03 12:47:50;;;;;;;6.47;1.38;;;30.00;49.70;;;;;;5015766;28;20045;-74
2022/09/03 12:50:22;;;;;;;1.85;1.10;;;30.10;49.70;;;;;;5038787;28;20053;-73
2022/09/03 12:52:58;;;;;;;4.18;1.35;;;29.90;49.70;;;;;;5020191;28;20427;-72
2022/09/03 12:55:40;;;;;;;6.95;1.38;;;30.00;50.20;;;;;;5039762;28;20044;-71
2022/09/03 12:58:23;;;;;;;8.85;1.80;;;30.00;49.80;;;;;;5030423;28;20122;-72
2022/09/03 13:00:56;;;;;;;6.30;1.60;;;29.90;49.50;;;;;;5032192;28;20040;-72
2022/09/03 13:03:53;;;;;;;2.72;1.50;;;29.60;49.50;;;;;;5016030;28;20087;-72
2022/09/03 13:06:28;;;;;;;6.00;1.35;;;29.20;50.10;;;;;;5037581;28;20049;-72
2022/09/03 13:09:00;;;;;;;2.95;1.25;;;28.80;50.50;;;;;;5037074;28;20100;-74
2022/09/03 13:11:32;;;;;;;3.17;1.30;;;28.40;50.70;;;;;;5018194;28;20045;-73
2022/09/03 13:14:05;;;;;;;3.88;1.45;;;28.10;51.40;;;;;;5015558;28;20064;-73
2022/09/03 13:16:43;;;;;;;2.15;1.13;;;28.10;51.50;;;;;;5034735;28;20042;-73
2022/09/03 13:19:12;;;;;;;;;;;28.10;50.90;;;;;;5034758;28;20041;-72